Terminal Aerodrome Forecast
Issued by NWS

Home | Current Version | Previous Version | Text Only | Print | Product List | Glossary On
Versions: 1 2 3 4 5 6 7 8 9 10 11 12
000
FTUS44 KEPZ 280500
TAFDMN
TAF
KDMN 280520Z 2806/2906 35005KT P6SM SKC
     FM281400 00000KT P6SM SKC
     FM281900 14006KT P6SM SKC=

USA.gov is the U.S. government's official web portal to all federal, state and local government web resources and services.